sensor_id;sensor_type;location;lat;lon;timestamp;P1;durP1;ratioP1;P2;durP2;ratioP2
26062;SDS011;13837;48.562;12.108;2023-05-27T00:01:37;116.85;;;109.38;;
26062;SDS011;13837;48.562;12.108;2023-05-27T00:04:03;128.40;;;120.63;;
26062;SDS011;13837;48.562;12.108;2023-05-27T00:06:29;73.13;;;68.60;;
26062;SDS011;13837;48.562;12.108;2023-05-27T00:08:55;180.75;;;168.90;;
26062;SDS011;13837;48.562;12.108;2023-05-27T00:11:21;82.60;;;77.50;;
26062;SDS011;13837;48.562;12.108;2023-05-27T00:13:47;133.70;;;124.82;;
26062;SDS011;13837;48.562;12.108;2023-05-27T00:16:14;107.70;;;100.53;;
26062;SDS011;13837;48.562;12.108;2023-05-27T00:18:41;84.05;;;78.68;;
26062;SDS011;13837;48.562;12.108;2023-05-27T00:21:08;71.68;;;67.07;;
26062;SDS011;13837;48.562;12.108;2023-05-27T00:23:34;111.30;;;104.25;;
26062;SDS011;13837;48.562;12.108;2023-05-27T00:26:00;74.00;;;69.18;;
26062;SDS011;13837;48.562;12.108;2023-05-27T00:28:26;140.25;;;129.82;;
26062;SDS011;13837;48.562;12.108;2023-05-27T00:30:54;127.13;;;118.13;;
26062;SDS011;13837;48.562;12.108;2023-05-27T00:33:22;170.15;;;159.40;;
26062;SDS011;13837;48.562;12.108;2023-05-27T00:35:48;149.52;;;139.88;;
26062;SDS011;13837;48.562;12.108;2023-05-27T00:38:14;118.32;;;110.57;;
26062;SDS011;13837;48.562;12.108;2023-05-27T00:40:40;156.18;;;145.95;;
26062;SDS011;13837;48.562;12.108;2023-05-27T00:43:06;205.82;;;191.23;;
26062;SDS011;13837;48.562;12.108;2023-05-27T00:45:33;148.18;;;138.77;;
26062;SDS011;13837;48.562;12.108;2023-05-27T00:47:59;138.82;;;130.50;;
26062;SDS011;13837;48.562;12.108;2023-05-27T00:50:27;221.18;;;205.82;;
26062;SDS011;13837;48.562;12.108;2023-05-27T00:52:54;112.57;;;105.65;;
26062;SDS011;13837;48.562;12.108;2023-05-27T00:55:21;195.32;;;182.63;;
26062;SDS011;13837;48.562;12.108;2023-05-27T00:57:47;211.02;;;196.93;;
26062;SDS011;13837;48.562;12.108;2023-05-27T01:00:13;270.88;;;252.13;;
26062;SDS011;13837;48.562;12.108;2023-05-27T01:02:40;198.23;;;184.18;;
26062;SDS011;13837;48.562;12.108;2023-05-27T01:05:10;158.00;;;147.77;;
26062;SDS011;13837;48.562;12.108;2023-05-27T01:07:43;157.77;;;147.15;;
26062;SDS011;13837;48.562;12.108;2023-05-27T01:10:15;267.17;;;248.40;;
26062;SDS011;13837;48.562;12.108;2023-05-27T01:17:40;141.88;;;133.13;;
26062;SDS011;13837;48.562;12.108;2023-05-27T01:20:11;76.22;;;71.28;;
26062;SDS011;13837;48.562;12.108;2023-05-27T01:22:42;142.88;;;133.75;;
26062;SDS011;13837;48.562;12.108;2023-05-27T01:25:09;110.25;;;103.10;;
26062;SDS011;13837;48.562;12.108;2023-05-27T01:27:35;101.28;;;94.57;;
26062;SDS011;13837;48.562;12.108;2023-05-27T01:30:05;113.22;;;106.28;;
26062;SDS011;13837;48.562;12.108;2023-05-27T01:35:18;118.00;;;110.50;;
26062;SDS011;13837;48.562;12.108;2023-05-27T01:37:46;126.15;;;118.05;;
26062;SDS011;13837;48.562;12.108;2023-05-27T01:40:13;78.07;;;73.03;;
26062;SDS011;13837;48.562;12.108;2023-05-27T01:42:40;119.45;;;111.47;;
26062;SDS011;13837;48.562;12.108;2023-05-27T01:45:08;65.32;;;60.75;;
26062;SDS011;13837;48.562;12.108;2023-05-27T01:47:35;75.68;;;70.65;;
26062;SDS011;13837;48.562;12.108;2023-05-27T01:50:02;61.88;;;57.97;;
26062;SDS011;13837;48.562;12.108;2023-05-27T01:52:28;124.05;;;116.55;;
26062;SDS011;13837;48.562;12.108;2023-05-27T01:54:54;166.00;;;155.75;;
26062;SDS011;13837;48.562;12.108;2023-05-27T01:57:20;109.35;;;102.47;;
26062;SDS011;13837;48.562;12.108;2023-05-27T01:59:48;105.43;;;98.40;;
26062;SDS011;13837;48.562;12.108;2023-05-27T02:02:14;83.00;;;78.03;;
26062;SDS011;13837;48.562;12.108;2023-05-27T02:04:40;87.28;;;81.78;;
26062;SDS011;13837;48.562;12.108;2023-05-27T02:07:06;78.47;;;73.43;;
26062;SDS011;13837;48.562;12.108;2023-05-27T02:09:32;49.05;;;45.67;;
26062;SDS011;13837;48.562;12.108;2023-05-27T02:11:58;32.03;;;29.90;;
26062;SDS011;13837;48.562;12.108;2023-05-27T02:14:24;27.55;;;25.13;;
26062;SDS011;13837;48.562;12.108;2023-05-27T02:16:50;18.00;;;16.30;;
26062;SDS011;13837;48.562;12.108;2023-05-27T02:19:16;17.45;;;15.65;;
26062;SDS011;13837;48.562;12.108;2023-05-27T02:21:45;19.80;;;15.32;;
26062;SDS011;13837;48.562;12.108;2023-05-27T02:24:11;20.65;;;15.70;;
26062;SDS011;13837;48.562;12.108;2023-05-27T02:26:37;17.52;;;15.65;;
26062;SDS011;13837;48.562;12.108;2023-05-27T02:29:03;23.30;;;15.18;;
26062;SDS011;13837;48.562;12.108;2023-05-27T02:31:29;16.55;;;15.02;;
26062;SDS011;13837;48.562;12.108;2023-05-27T02:33:55;17.50;;;15.70;;
26062;SDS011;13837;48.562;12.108;2023-05-27T02:36:22;21.42;;;15.27;;
26062;SDS011;13837;48.562;12.108;2023-05-27T02:38:49;19.77;;;14.77;;
26062;SDS011;13837;48.562;12.108;2023-05-27T02:41:15;19.98;;;15.90;;
26062;SDS011;13837;48.562;12.108;2023-05-27T02:43:41;18.00;;;15.40;;
26062;SDS011;13837;48.562;12.108;2023-05-27T02:46:07;19.17;;;15.77;;
26062;SDS011;13837;48.562;12.108;2023-05-27T02:48:33;15.85;;;13.82;;
26062;SDS011;13837;48.562;12.108;2023-05-27T02:50:59;18.98;;;14.82;;
26062;SDS011;13837;48.562;12.108;2023-05-27T02:53:26;18.13;;;14.57;;
26062;SDS011;13837;48.562;12.108;2023-05-27T02:55:52;27.65;;;17.38;;
26062;SDS011;13837;48.562;12.108;2023-05-27T02:58:18;39.58;;;24.55;;
26062;SDS011;13837;48.562;12.108;2023-05-27T03:00:44;40.58;;;24.27;;
26062;SDS011;13837;48.562;12.108;2023-05-27T03:03:10;19.65;;;16.15;;
26062;SDS011;13837;48.562;12.108;2023-05-27T03:05:36;18.48;;;16.25;;
26062;SDS011;13837;48.562;12.108;2023-05-27T03:08:02;20.10;;;17.73;;
26062;SDS011;13837;48.562;12.108;2023-05-27T03:10:31;23.53;;;21.13;;
26062;SDS011;13837;48.562;12.108;2023-05-27T03:12:57;25.55;;;22.02;;
26062;SDS011;13837;48.562;12.108;2023-05-27T03:15:23;22.98;;;20.88;;
26062;SDS011;13837;48.562;12.108;2023-05-27T03:17:49;18.88;;;16.63;;
26062;SDS011;13837;48.562;12.108;2023-05-27T03:20:17;20.17;;;17.15;;
26062;SDS011;13837;48.562;12.108;2023-05-27T03:22:44;20.30;;;18.48;;
26062;SDS011;13837;48.562;12.108;2023-05-27T03:25:11;19.27;;;17.33;;
26062;SDS011;13837;48.562;12.108;2023-05-27T03:27:37;17.88;;;16.15;;
26062;SDS011;13837;48.562;12.108;2023-05-27T03:30:07;20.35;;;15.73;;
26062;SDS011;13837;48.562;12.108;2023-05-27T03:32:39;22.20;;;16.80;;
26062;SDS011;13837;48.562;12.108;2023-05-27T03:35:05;25.75;;;17.10;;
26062;SDS011;13837;48.562;12.108;2023-05-27T03:37:31;23.55;;;18.10;;
26062;SDS011;13837;48.562;12.108;2023-05-27T03:40:02;27.58;;;17.20;;
26062;SDS011;13837;48.562;12.108;2023-05-27T03:42:31;23.70;;;17.00;;
26062;SDS011;13837;48.562;12.108;2023-05-27T03:44:58;32.38;;;17.45;;
26062;SDS011;13837;48.562;12.108;2023-05-27T03:47:26;24.73;;;17.20;;
26062;SDS011;13837;48.562;12.108;2023-05-27T03:49:52;22.35;;;16.90;;
26062;SDS011;13837;48.562;12.108;2023-05-27T03:52:18;26.42;;;17.77;;
26062;SDS011;13837;48.562;12.108;2023-05-27T03:54:44;39.05;;;17.40;;
26062;SDS011;13837;48.562;12.108;2023-05-27T03:57:12;35.40;;;17.67;;
26062;SDS011;13837;48.562;12.108;2023-05-27T03:59:38;29.30;;;17.17;;
26062;SDS011;13837;48.562;12.108;2023-05-27T04:02:04;34.53;;;17.02;;
26062;SDS011;13837;48.562;12.108;2023-05-27T04:04:30;29.17;;;16.63;;
26062;SDS011;13837;48.562;12.108;2023-05-27T04:06:56;33.15;;;19.02;;
26062;SDS011;13837;48.562;12.108;2023-05-27T04:09:22;24.63;;;17.17;;
26062;SDS011;13837;48.562;12.108;2023-05-27T04:11:48;24.27;;;16.30;;
26062;SDS011;13837;48.562;12.108;2023-05-27T04:14:14;16.45;;;14.90;;
26062;SDS011;13837;48.562;12.108;2023-05-27T04:16:41;19.52;;;15.27;;
26062;SDS011;13837;48.562;12.108;2023-05-27T04:19:07;26.27;;;17.40;;
26062;SDS011;13837;48.562;12.108;2023-05-27T04:21:33;18.80;;;16.73;;
26062;SDS011;13837;48.562;12.108;2023-05-27T04:24:01;17.20;;;15.32;;
26062;SDS011;13837;48.562;12.108;2023-05-27T04:26:28;17.33;;;15.63;;
26062;SDS011;13837;48.562;12.108;2023-05-27T04:28:54;23.00;;;15.50;;
26062;SDS011;13837;48.562;12.108;2023-05-27T04:31:25;21.52;;;15.18;;
26062;SDS011;13837;48.562;12.108;2023-05-27T04:33:58;16.42;;;14.25;;
26062;SDS011;13837;48.562;12.108;2023-05-27T04:36:25;27.05;;;15.75;;
26062;SDS011;13837;48.562;12.108;2023-05-27T04:39:01;16.70;;;14.38;;
26062;SDS011;13837;48.562;12.108;2023-05-27T04:41:29;15.27;;;13.13;;
26062;SDS011;13837;48.562;12.108;2023-05-27T04:44:07;15.57;;;14.02;;
26062;SDS011;13837;48.562;12.108;2023-05-27T04:46:38;22.13;;;13.95;;
26062;SDS011;13837;48.562;12.108;2023-05-27T04:49:05;14.50;;;13.05;;
26062;SDS011;13837;48.562;12.108;2023-05-27T04:51:32;16.05;;;13.82;;
26062;SDS011;13837;48.562;12.108;2023-05-27T04:54:01;15.50;;;12.70;;
26062;SDS011;13837;48.562;12.108;2023-05-27T04:56:27;16.30;;;12.05;;
26062;SDS011;13837;48.562;12.108;2023-05-27T04:58:54;18.67;;;12.32;;
26062;SDS011;13837;48.562;12.108;2023-05-27T05:01:28;15.18;;;12.38;;
26062;SDS011;13837;48.562;12.108;2023-05-27T05:04:10;14.82;;;11.70;;
26062;SDS011;13837;48.562;12.108;2023-05-27T05:06:41;13.32;;;11.95;;
26062;SDS011;13837;48.562;12.108;2023-05-27T05:09:08;12.50;;;11.30;;
26062;SDS011;13837;48.562;12.108;2023-05-27T05:11:36;12.57;;;10.85;;
26062;SDS011;13837;48.562;12.108;2023-05-27T05:14:03;13.13;;;11.35;;
26062;SDS011;13837;48.562;12.108;2023-05-27T05:16:29;14.77;;;11.77;;
26062;SDS011;13837;48.562;12.108;2023-05-27T05:18:55;13.32;;;11.18;;
26062;SDS011;13837;48.562;12.108;2023-05-27T05:21:22;16.70;;;11.73;;
26062;SDS011;13837;48.562;12.108;2023-05-27T05:23:49;12.35;;;11.15;;
26062;SDS011;13837;48.562;12.108;2023-05-27T05:26:15;16.20;;;11.35;;
26062;SDS011;13837;48.562;12.108;2023-05-27T05:28:43;17.27;;;12.47;;
26062;SDS011;13837;48.562;12.108;2023-05-27T05:31:10;14.52;;;12.15;;
26062;SDS011;13837;48.562;12.108;2023-05-27T05:33:36;15.48;;;11.82;;
26062;SDS011;13837;48.562;12.108;2023-05-27T05:36:03;16.33;;;12.27;;
26062;SDS011;13837;48.562;12.108;2023-05-27T05:38:39;14.82;;;12.00;;
26062;SDS011;13837;48.562;12.108;2023-05-27T05:41:06;17.38;;;12.60;;
26062;SDS011;13837;48.562;12.108;2023-05-27T05:43:34;15.43;;;11.85;;
26062;SDS011;13837;48.562;12.108;2023-05-27T05:46:00;14.52;;;12.80;;
26062;SDS011;13837;48.562;12.108;2023-05-27T05:48:27;13.02;;;11.73;;
26062;SDS011;13837;48.562;12.108;2023-05-27T05:50:54;18.73;;;14.48;;
26062;SDS011;13837;48.562;12.108;2023-05-27T05:53:20;17.45;;;15.88;;
26062;SDS011;13837;48.562;12.108;2023-05-27T05:55:46;31.95;;;29.58;;
26062;SDS011;13837;48.562;12.108;2023-05-27T05:58:15;23.35;;;21.27;;
26062;SDS011;13837;48.562;12.108;2023-05-27T06:00:42;39.75;;;36.45;;
26062;SDS011;13837;48.562;12.108;2023-05-27T06:03:27;28.90;;;26.45;;
26062;SDS011;13837;48.562;12.108;2023-05-27T06:08:23;49.92;;;46.53;;
26062;SDS011;13837;48.562;12.108;2023-05-27T06:10:59;64.30;;;60.08;;
26062;SDS011;13837;48.562;12.108;2023-05-27T06:13:26;132.40;;;123.28;;
26062;SDS011;13837;48.562;12.108;2023-05-27T06:15:54;192.70;;;179.35;;
26062;SDS011;13837;48.562;12.108;2023-05-27T06:18:21;205.20;;;191.43;;
26062;SDS011;13837;48.562;12.108;2023-05-27T06:20:48;251.75;;;234.25;;
26062;SDS011;13837;48.562;12.108;2023-05-27T06:23:14;271.67;;;251.10;;
26062;SDS011;13837;48.562;12.108;2023-05-27T06:25:58;535.90;;;491.35;;
26062;SDS011;13837;48.562;12.108;2023-05-27T06:28:27;460.75;;;422.35;;
26062;SDS011;13837;48.562;12.108;2023-05-27T06:30:53;666.85;;;608.45;;
26062;SDS011;13837;48.562;12.108;2023-05-27T06:33:20;911.70;;;822.95;;
26062;SDS011;13837;48.562;12.108;2023-05-27T06:35:46;875.90;;;793.15;;
26062;SDS011;13837;48.562;12.108;2023-05-27T06:38:12;879.85;;;796.70;;
26062;SDS011;13837;48.562;12.108;2023-05-27T06:40:38;970.28;;;875.33;;
26062;SDS011;13837;48.562;12.108;2023-05-27T06:43:07;1009.42;;;907.20;;
26062;SDS011;13837;48.562;12.108;2023-05-27T06:45:43;939.35;;;845.53;;
26062;SDS011;13837;48.562;12.108;2023-05-27T06:48:25;1022.75;;;917.88;;
26062;SDS011;13837;48.562;12.108;2023-05-27T06:50:52;1051.50;;;936.40;;
26062;SDS011;13837;48.562;12.108;2023-05-27T06:53:18;1083.28;;;966.33;;
26062;SDS011;13837;48.562;12.108;2023-05-27T06:55:55;1126.13;;;997.85;;
26062;SDS011;13837;48.562;12.108;2023-05-27T06:58:58;1101.78;;;981.60;;
26062;SDS011;13837;48.562;12.108;2023-05-27T07:01:24;1064.20;;;950.60;;
26062;SDS011;13837;48.562;12.108;2023-05-27T07:04:02;1057.05;;;950.55;;
26062;SDS011;13837;48.562;12.108;2023-05-27T07:06:42;1055.93;;;947.55;;
26062;SDS011;13837;48.562;12.108;2023-05-27T07:09:09;1051.38;;;942.95;;
26062;SDS011;13837;48.562;12.108;2023-05-27T07:11:37;969.85;;;877.53;;
26062;SDS011;13837;48.562;12.108;2023-05-27T07:14:07;991.38;;;894.85;;
26062;SDS011;13837;48.562;12.108;2023-05-27T07:16:38;851.83;;;777.13;;
26062;SDS011;13837;48.562;12.108;2023-05-27T07:19:06;888.92;;;809.60;;
26062;SDS011;13837;48.562;12.108;2023-05-27T07:21:39;789.83;;;722.72;;
26062;SDS011;13837;48.562;12.108;2023-05-27T07:24:14;780.15;;;715.15;;
26062;SDS011;13837;48.562;12.108;2023-05-27T07:26:40;757.30;;;700.47;;
26062;SDS011;13837;48.562;12.108;2023-05-27T07:29:07;721.80;;;666.83;;
26062;SDS011;13837;48.562;12.108;2023-05-27T07:31:51;705.85;;;652.70;;
26062;SDS011;13837;48.562;12.108;2023-05-27T07:34:19;683.55;;;632.75;;
26062;SDS011;13837;48.562;12.108;2023-05-27T07:36:47;691.40;;;640.22;;
26062;SDS011;13837;48.562;12.108;2023-05-27T07:39:13;642.78;;;595.42;;
26062;SDS011;13837;48.562;12.108;2023-05-27T07:41:39;668.72;;;620.90;;
26062;SDS011;13837;48.562;12.108;2023-05-27T07:44:05;672.55;;;621.65;;
26062;SDS011;13837;48.562;12.108;2023-05-27T07:46:32;733.45;;;674.38;;
26062;SDS011;13837;48.562;12.108;2023-05-27T07:48:59;667.88;;;619.67;;
26062;SDS011;13837;48.562;12.108;2023-05-27T07:51:26;688.33;;;634.53;;
26062;SDS011;13837;48.562;12.108;2023-05-27T07:53:52;704.83;;;649.28;;
26062;SDS011;13837;48.562;12.108;2023-05-27T07:56:21;685.28;;;629.65;;
26062;SDS011;13837;48.562;12.108;2023-05-27T07:58:47;737.58;;;677.15;;
26062;SDS011;13837;48.562;12.108;2023-05-27T08:01:13;708.70;;;650.50;;
26062;SDS011;13837;48.562;12.108;2023-05-27T08:03:45;732.42;;;671.67;;
26062;SDS011;13837;48.562;12.108;2023-05-27T08:06:15;837.47;;;755.50;;
26062;SDS011;13837;48.562;12.108;2023-05-27T08:08:44;764.80;;;697.10;;
26062;SDS011;13837;48.562;12.108;2023-05-27T08:11:29;933.53;;;842.30;;
26062;SDS011;13837;48.562;12.108;2023-05-27T08:14:04;855.00;;;773.45;;
26062;SDS011;13837;48.562;12.108;2023-05-27T08:17:05;817.83;;;741.63;;
26062;SDS011;13837;48.562;12.108;2023-05-27T08:19:41;1006.47;;;900.00;;
26062;SDS011;13837;48.562;12.108;2023-05-27T08:22:27;1137.38;;;962.05;;
26062;SDS011;13837;48.562;12.108;2023-05-27T08:24:56;1016.35;;;903.28;;
26062;SDS011;13837;48.562;12.108;2023-05-27T08:27:45;1185.47;;;985.65;;
26062;SDS011;13837;48.562;12.108;2023-05-27T08:30:19;1064.88;;;947.75;;
26062;SDS011;13837;48.562;12.108;2023-05-27T08:32:54;1017.17;;;902.50;;
26062;SDS011;13837;48.562;12.108;2023-05-27T08:35:21;1134.28;;;979.10;;
26062;SDS011;13837;48.562;12.108;2023-05-27T08:37:47;1177.30;;;962.58;;
26062;SDS011;13837;48.562;12.108;2023-05-27T08:40:14;1148.70;;;980.22;;
26062;SDS011;13837;48.562;12.108;2023-05-27T08:42:46;1387.18;;;999.90;;
26062;SDS011;13837;48.562;12.108;2023-05-27T08:45:13;1282.28;;;999.90;;
26062;SDS011;13837;48.562;12.108;2023-05-27T08:47:39;1400.35;;;999.90;;
26062;SDS011;13837;48.562;12.108;2023-05-27T08:50:09;1447.28;;;999.90;;
26062;SDS011;13837;48.562;12.108;2023-05-27T08:52:37;1405.03;;;999.90;;
26062;SDS011;13837;48.562;12.108;2023-05-27T08:55:04;1581.75;;;999.90;;
26062;SDS011;13837;48.562;12.108;2023-05-27T08:57:31;1615.10;;;999.90;;
26062;SDS011;13837;48.562;12.108;2023-05-27T08:59:58;1518.60;;;999.90;;
26062;SDS011;13837;48.562;12.108;2023-05-27T09:02:24;1577.35;;;999.90;;
26062;SDS011;13837;48.562;12.108;2023-05-27T09:04:51;1640.55;;;999.90;;
26062;SDS011;13837;48.562;12.108;2023-05-27T09:07:20;1515.80;;;999.90;;
26062;SDS011;13837;48.562;12.108;2023-05-27T09:09:56;1467.18;;;999.90;;
26062;SDS011;13837;48.562;12.108;2023-05-27T09:12:23;1638.70;;;999.90;;
26062;SDS011;13837;48.562;12.108;2023-05-27T09:14:50;1593.88;;;999.90;;
26062;SDS011;13837;48.562;12.108;2023-05-27T09:17:16;1694.07;;;999.90;;
26062;SDS011;13837;48.562;12.108;2023-05-27T09:19:43;1560.53;;;999.90;;
26062;SDS011;13837;48.562;12.108;2023-05-27T09:22:17;1652.90;;;999.90;;
26062;SDS011;13837;48.562;12.108;2023-05-27T09:24:44;1601.50;;;999.90;;
26062;SDS011;13837;48.562;12.108;2023-05-27T09:27:10;1585.07;;;999.90;;
26062;SDS011;13837;48.562;12.108;2023-05-27T09:29:40;1587.03;;;999.90;;
26062;SDS011;13837;48.562;12.108;2023-05-27T09:32:06;1632.07;;;999.90;;
26062;SDS011;13837;48.562;12.108;2023-05-27T09:34:39;1508.25;;;999.90;;
26062;SDS011;13837;48.562;12.108;2023-05-27T09:37:11;1650.85;;;999.90;;
26062;SDS011;13837;48.562;12.108;2023-05-27T09:39:41;1511.93;;;999.90;;
26062;SDS011;13837;48.562;12.108;2023-05-27T09:42:07;1473.25;;;999.90;;
26062;SDS011;13837;48.562;12.108;2023-05-27T09:44:36;1525.43;;;999.90;;
26062;SDS011;13837;48.562;12.108;2023-05-27T09:47:04;1499.13;;;999.90;;
26062;SDS011;13837;48.562;12.108;2023-05-27T09:49:34;1390.82;;;999.90;;
26062;SDS011;13837;48.562;12.108;2023-05-27T09:52:03;1458.90;;;999.90;;
26062;SDS011;13837;48.562;12.108;2023-05-27T09:54:29;1406.22;;;999.90;;
26062;SDS011;13837;48.562;12.108;2023-05-27T09:56:56;1367.13;;;999.90;;
26062;SDS011;13837;48.562;12.108;2023-05-27T09:59:22;1363.35;;;999.90;;
26062;SDS011;13837;48.562;12.108;2023-05-27T10:01:49;1328.72;;;999.90;;
26062;SDS011;13837;48.562;12.108;2023-05-27T10:04:16;1414.65;;;999.90;;
26062;SDS011;13837;48.562;12.108;2023-05-27T10:06:44;1408.43;;;999.90;;
26062;SDS011;13837;48.562;12.108;2023-05-27T10:09:10;1226.55;;;999.90;;
26062;SDS011;13837;48.562;12.108;2023-05-27T10:11:38;1237.18;;;999.90;;
26062;SDS011;13837;48.562;12.108;2023-05-27T10:14:05;1197.47;;;999.90;;
26062;SDS011;13837;48.562;12.108;2023-05-27T10:16:32;1229.22;;;999.90;;
26062;SDS011;13837;48.562;12.108;2023-05-27T10:18:58;1370.93;;;999.90;;
26062;SDS011;13837;48.562;12.108;2023-05-27T10:21:28;1295.88;;;999.90;;
26062;SDS011;13837;48.562;12.108;2023-05-27T10:23:56;1088.07;;;960.67;;
26062;SDS011;13837;48.562;12.108;2023-05-27T10:31:34;906.83;;;815.75;;
26062;SDS011;13837;48.562;12.108;2023-05-27T10:34:05;941.28;;;845.88;;
26062;SDS011;13837;48.562;12.108;2023-05-27T10:36:31;908.72;;;816.30;;
26062;SDS011;13837;48.562;12.108;2023-05-27T10:38:58;895.08;;;804.35;;
26062;SDS011;13837;48.562;12.108;2023-05-27T10:41:25;902.92;;;810.92;;
26062;SDS011;13837;48.562;12.108;2023-05-27T10:43:55;932.88;;;840.28;;
26062;SDS011;13837;48.562;12.108;2023-05-27T10:46:22;895.17;;;803.58;;
26062;SDS011;13837;48.562;12.108;2023-05-27T10:48:48;902.10;;;811.65;;
26062;SDS011;13837;48.562;12.108;2023-05-27T10:51:14;931.65;;;835.78;;
26062;SDS011;13837;48.562;12.108;2023-05-27T10:53:40;941.03;;;850.60;;
26062;SDS011;13837;48.562;12.108;2023-05-27T10:56:07;936.50;;;843.47;;
26062;SDS011;13837;48.562;12.108;2023-05-27T10:58:37;896.28;;;811.30;;
26062;SDS011;13837;48.562;12.108;2023-05-27T11:01:10;932.63;;;842.83;;
26062;SDS011;13837;48.562;12.108;2023-05-27T11:03:41;918.65;;;831.08;;
26062;SDS011;13837;48.562;12.108;2023-05-27T11:06:08;899.72;;;812.38;;
26062;SDS011;13837;48.562;12.108;2023-05-27T11:08:35;937.60;;;846.05;;
26062;SDS011;13837;48.562;12.108;2023-05-27T11:11:03;909.83;;;824.75;;
26062;SDS011;13837;48.562;12.108;2023-05-27T11:13:34;930.72;;;839.63;;
26062;SDS011;13837;48.562;12.108;2023-05-27T11:16:02;935.63;;;843.95;;
26062;SDS011;13837;48.562;12.108;2023-05-27T11:18:42;884.05;;;802.08;;
26062;SDS011;13837;48.562;12.108;2023-05-27T11:21:09;882.97;;;802.22;;
26062;SDS011;13837;48.562;12.108;2023-05-27T11:23:48;931.72;;;843.53;;
26062;SDS011;13837;48.562;12.108;2023-05-27T11:31:16;945.75;;;854.13;;
26062;SDS011;13837;48.562;12.108;2023-05-27T11:33:42;933.55;;;842.90;;
26062;SDS011;13837;48.562;12.108;2023-05-27T11:36:13;943.60;;;852.13;;
26062;SDS011;13837;48.562;12.108;2023-05-27T11:38:51;904.40;;;820.47;;
26062;SDS011;13837;48.562;12.108;2023-05-27T11:41:18;910.95;;;824.85;;
26062;SDS011;13837;48.562;12.108;2023-05-27T11:43:52;922.03;;;836.35;;
26062;SDS011;13837;48.562;12.108;2023-05-27T11:46:18;901.28;;;818.53;;
26062;SDS011;13837;48.562;12.108;2023-05-27T11:48:45;952.95;;;861.38;;
26062;SDS011;13837;48.562;12.108;2023-05-27T11:51:11;907.40;;;824.15;;
26062;SDS011;13837;48.562;12.108;2023-05-27T11:53:44;901.88;;;821.08;;
26062;SDS011;13837;48.562;12.108;2023-05-27T11:56:11;902.65;;;819.70;;
26062;SDS011;13837;48.562;12.108;2023-05-27T11:58:37;901.00;;;817.92;;
26062;SDS011;13837;48.562;12.108;2023-05-27T12:01:03;893.92;;;811.28;;
26062;SDS011;13837;48.562;12.108;2023-05-27T12:03:30;882.40;;;803.28;;
26062;SDS011;13837;48.562;12.108;2023-05-27T12:05:56;918.45;;;834.22;;
26062;SDS011;13837;48.562;12.108;2023-05-27T12:08:22;935.63;;;848.00;;
26062;SDS011;13837;48.562;12.108;2023-05-27T12:10:49;947.72;;;856.22;;
26062;SDS011;13837;48.562;12.108;2023-05-27T12:13:18;889.38;;;808.33;;
26062;SDS011;13837;48.562;12.108;2023-05-27T12:15:45;921.08;;;833.25;;
26062;SDS011;13837;48.562;12.108;2023-05-27T12:18:11;889.88;;;807.95;;
26062;SDS011;13837;48.562;12.108;2023-05-27T12:20:37;888.97;;;808.00;;
26062;SDS011;13837;48.562;12.108;2023-05-27T12:23:03;891.35;;;809.33;;
26062;SDS011;13837;48.562;12.108;2023-05-27T12:25:30;888.28;;;806.58;;
26062;SDS011;13837;48.562;12.108;2023-05-27T12:27:56;861.03;;;783.65;;
26062;SDS011;13837;48.562;12.108;2023-05-27T12:30:22;898.20;;;816.53;;
26062;SDS011;13837;48.562;12.108;2023-05-27T12:32:48;880.03;;;801.38;;
26062;SDS011;13837;48.562;12.108;2023-05-27T12:35:14;882.70;;;802.78;;
26062;SDS011;13837;48.562;12.108;2023-05-27T12:37:41;869.17;;;792.50;;
26062;SDS011;13837;48.562;12.108;2023-05-27T12:40:07;864.58;;;787.67;;
26062;SDS011;13837;48.562;12.108;2023-05-27T12:42:34;887.20;;;807.00;;
26062;SDS011;13837;48.562;12.108;2023-05-27T12:45:01;902.75;;;820.88;;
26062;SDS011;13837;48.562;12.108;2023-05-27T12:47:27;898.53;;;816.10;;
26062;SDS011;13837;48.562;12.108;2023-05-27T12:49:54;866.35;;;787.45;;
26062;SDS011;13837;48.562;12.108;2023-05-27T12:52:20;873.42;;;795.63;;
26062;SDS011;13837;48.562;12.108;2023-05-27T12:54:46;880.50;;;800.97;;
26062;SDS011;13837;48.562;12.108;2023-05-27T12:57:12;871.72;;;792.55;;
26062;SDS011;13837;48.562;12.108;2023-05-27T12:59:39;842.22;;;766.17;;
26062;SDS011;13837;48.562;12.108;2023-05-27T13:02:06;864.70;;;788.92;;
26062;SDS011;13837;48.562;12.108;2023-05-27T13:04:32;868.45;;;789.40;;
26062;SDS011;13837;48.562;12.108;2023-05-27T13:06:58;907.88;;;824.22;;
26062;SDS011;13837;48.562;12.108;2023-05-27T13:09:25;900.25;;;817.38;;
26062;SDS011;13837;48.562;12.108;2023-05-27T13:11:51;873.13;;;794.40;;
26062;SDS011;13837;48.562;12.108;2023-05-27T13:14:17;885.53;;;804.55;;
26062;SDS011;13837;48.562;12.108;2023-05-27T13:16:43;878.20;;;800.28;;
26062;SDS011;13837;48.562;12.108;2023-05-27T13:19:09;891.03;;;812.50;;
26062;SDS011;13837;48.562;12.108;2023-05-27T13:21:35;894.50;;;812.13;;
26062;SDS011;13837;48.562;12.108;2023-05-27T13:24:01;860.72;;;782.58;;
26062;SDS011;13837;48.562;12.108;2023-05-27T13:26:27;861.05;;;783.60;;
26062;SDS011;13837;48.562;12.108;2023-05-27T13:28:55;891.87;;;808.13;;
26062;SDS011;13837;48.562;12.108;2023-05-27T13:31:21;866.35;;;790.72;;
26062;SDS011;13837;48.562;12.108;2023-05-27T13:33:47;846.72;;;771.30;;
26062;SDS011;13837;48.562;12.108;2023-05-27T13:36:13;880.50;;;801.90;;
26062;SDS011;13837;48.562;12.108;2023-05-27T13:38:39;873.35;;;794.58;;
26062;SDS011;13837;48.562;12.108;2023-05-27T13:41:05;871.40;;;794.80;;
26062;SDS011;13837;48.562;12.108;2023-05-27T13:43:31;901.10;;;816.30;;
26062;SDS011;13837;48.562;12.108;2023-05-27T13:45:58;882.47;;;803.85;;
26062;SDS011;13837;48.562;12.108;2023-05-27T13:48:24;858.67;;;782.60;;
26062;SDS011;13837;48.562;12.108;2023-05-27T13:50:50;895.72;;;811.33;;
26062;SDS011;13837;48.562;12.108;2023-05-27T13:53:16;864.15;;;785.60;;
26062;SDS011;13837;48.562;12.108;2023-05-27T13:55:42;882.75;;;802.13;;
26062;SDS011;13837;48.562;12.108;2023-05-27T13:58:10;890.60;;;809.28;;
26062;SDS011;13837;48.562;12.108;2023-05-27T14:00:36;880.50;;;800.95;;
26062;SDS011;13837;48.562;12.108;2023-05-27T14:03:02;885.45;;;804.88;;
26062;SDS011;13837;48.562;12.108;2023-05-27T14:05:28;880.20;;;800.08;;
26062;SDS011;13837;48.562;12.108;2023-05-27T14:07:55;900.13;;;814.97;;
26062;SDS011;13837;48.562;12.108;2023-05-27T14:10:21;862.13;;;785.75;;
26062;SDS011;13837;48.562;12.108;2023-05-27T14:12:47;847.78;;;772.88;;
26062;SDS011;13837;48.562;12.108;2023-05-27T14:15:13;869.50;;;790.50;;
26062;SDS011;13837;48.562;12.108;2023-05-27T14:17:40;858.70;;;782.90;;